Terminal Aerodrome Forecast
Issued by NWS

Home | Current Version | Previous Version | Text Only | Print | Product List | Glossary On
Versions: 1 2 3 4 5 6 7 8 9 10 11 12 13 14 15 16 17 18 19 20
000
FTUS44 KOUN 220002 RRA
TAFGAG
TAF
KGAG 220002Z 2200/2224 17012KT P6SM SCT070
     FM221700 19016G22KT P6SM BKN080 OVC200=

USA.gov is the U.S. government's official web portal to all federal, state and local government web resources and services.